createdAt,value
2023-01-30T00:02:27.566Z,100315.47
2023-01-30T00:07:31.678Z,100302.84
2023-01-30T00:12:34.515Z,100304.81
2023-01-30T00:17:37.236Z,100301.34
2023-01-30T00:22:49.326Z,100308.16
2023-01-30T00:28:01.201Z,100314.50
2023-01-30T00:33:05.454Z,100302.00
2023-01-30T00:38:10.261Z,100313.41
2023-01-30T00:43:36.486Z,100281.19
2023-01-30T00:48:39.368Z,100263.34
2023-01-30T00:53:43.646Z,100259.22
2023-01-30T00:58:46.378Z,100234.97
2023-01-30T01:03:49.101Z,100204.19
2023-01-30T01:08:53.210Z,100193.03
2023-01-30T01:13:57.315Z,100187.88
2023-01-30T01:19:00.300Z,100163.09
2023-01-30T01:24:04.831Z,100163.34
2023-01-30T01:29:12.783Z,100125.13
2023-01-30T01:34:15.685Z,100118.59
2023-01-30T01:39:21.493Z,100114.84
2023-01-30T01:44:26.014Z,100133.53
2023-01-30T01:49:30.388Z,100105.63
2023-01-30T01:54:38.629Z,100065.47
2023-01-30T01:59:45.250Z,100059.91
2023-01-30T02:05:02.917Z,100094.16
2023-01-30T02:10:10.306Z,100102.44
2023-01-30T02:15:13.344Z,100114.88
2023-01-30T02:20:24.322Z,100081.13
2023-01-30T02:26:09.280Z,100071.81
2023-01-30T02:31:25.423Z,100032.16
2023-01-30T02:36:30.755Z,100019.78
2023-01-30T02:41:38.465Z,100009.06
2023-01-30T02:46:49.055Z,99989.59
2023-01-30T02:51:51.973Z,99972.31
2023-01-30T02:56:58.782Z,99954.88
2023-01-30T03:02:33.132Z,99948.69
2023-01-30T03:07:42.187Z,99938.78
2023-01-30T03:12:50.602Z,99945.13
2023-01-30T03:17:55.829Z,99926.00
2023-01-30T03:22:59.409Z,99936.34
2023-01-30T03:28:03.505Z,99915.38
2023-01-30T03:33:07.639Z,99929.97
2023-01-30T03:38:13.358Z,99910.34
2023-01-30T03:43:16.054Z,99907.88
2023-01-30T03:48:20.453Z,99892.16
2023-01-30T03:53:23.551Z,99890.72
2023-01-30T03:58:26.561Z,99880.78
2023-01-30T04:03:32.078Z,99875.22
2023-01-30T04:08:35.663Z,99857.19
2023-01-30T04:13:39.357Z,99837.97
2023-01-30T04:18:43.549Z,99833.91
2023-01-30T04:23:53.135Z,99821.47
2023-01-30T04:28:56.011Z,99808.75
2023-01-30T04:34:00.447Z,99818.19
2023-01-30T04:39:03.271Z,99801.22
2023-01-30T04:44:07.896Z,99774.72
2023-01-30T04:49:35.198Z,99779.66
2023-01-30T04:54:39.161Z,99766.72
2023-01-30T04:59:42.302Z,99749.66
2023-01-30T05:04:51.396Z,99741.47
2023-01-30T05:09:54.104Z,99718.47
2023-01-30T05:14:56.943Z,99717.19
2023-01-30T05:20:01.023Z,99689.09
2023-01-30T05:25:03.906Z,99674.41
2023-01-30T05:30:07.845Z,99691.06
2023-01-30T05:35:12.018Z,99663.75
2023-01-30T05:40:15.162Z,99657.09
2023-01-30T05:45:18.336Z,99654.31
2023-01-30T05:50:22.529Z,99642.69
2023-01-30T05:55:25.488Z,99642.34
2023-01-30T06:00:28.270Z,99633.41
2023-01-30T06:05:32.613Z,99645.00
2023-01-30T06:10:35.611Z,99628.66
2023-01-30T06:15:39.127Z,99631.38
2023-01-30T06:20:48.371Z,99619.69
2023-01-30T06:25:51.744Z,99631.59
2023-01-30T06:30:54.997Z,99636.78
2023-01-30T06:35:59.127Z,99642.19
2023-01-30T06:41:01.906Z,99633.69
2023-01-30T06:46:04.893Z,99640.41
2023-01-30T06:51:09.046Z,99630.66
2023-01-30T06:56:11.977Z,99642.63
2023-01-30T07:01:14.824Z,99619.56
2023-01-30T07:06:18.932Z,99641.53
2023-01-30T07:11:21.624Z,99616.78
2023-01-30T07:16:29.052Z,99628.34
2023-01-30T07:21:33.186Z,99641.31
2023-01-30T07:26:36.384Z,99637.13
2023-01-30T07:31:39.181Z,99629.81
2023-01-30T07:36:43.309Z,99640.59
2023-01-30T07:41:46.016Z,99647.34
2023-01-30T07:46:48.847Z,99644.41
2023-01-30T07:51:53.160Z,99658.44
2023-01-30T07:56:55.834Z,99658.09
2023-01-30T08:01:58.684Z,99632.91
2023-01-30T08:07:02.802Z,99644.56
2023-01-30T08:12:06.088Z,99646.59
2023-01-30T08:17:08.907Z,99632.09
2023-01-30T08:22:13.212Z,99654.75
2023-01-30T08:27:16.104Z,99651.00
2023-01-30T08:32:18.831Z,99653.22
2023-01-30T08:37:23.039Z,99663.47
2023-01-30T08:42:25.918Z,99671.00
2023-01-30T08:47:28.635Z,99645.78
2023-01-30T08:52:33.239Z,99634.81
2023-01-30T08:57:36.244Z,99673.81
2023-01-30T09:02:39.004Z,99645.25
2023-01-30T09:07:43.075Z,99651.25
2023-01-30T09:12:46.568Z,99658.28
2023-01-30T09:17:49.340Z,99668.03
2023-01-30T09:22:53.438Z,99642.78
2023-01-30T09:27:56.577Z,99633.19
2023-01-30T09:32:59.268Z,99643.41
2023-01-30T09:38:04.703Z,99619.16
2023-01-30T09:43:23.528Z,99607.91
2023-01-30T09:48:31.085Z,99611.28
2023-01-30T09:53:39.915Z,99652.88
2023-01-30T09:58:46.852Z,99632.66
2023-01-30T10:03:57.390Z,99647.22
2023-01-30T10:09:05.791Z,99649.41
2023-01-30T10:14:25.495Z,99643.09
2023-01-30T10:19:40.571Z,99644.19
2023-01-30T10:24:52.812Z,99605.09
2023-01-30T10:29:57.509Z,99632.91
2023-01-30T10:35:06.390Z,99649.25
2023-01-30T10:40:16.328Z,99633.84
2023-01-30T10:45:22.087Z,99641.31
2023-01-30T10:50:30.331Z,99628.78
2023-01-30T10:55:38.497Z,99631.44
2023-01-30T11:00:43.976Z,99634.47
2023-01-30T11:05:50.323Z,99633.66
2023-01-30T11:10:55.495Z,99621.06
2023-01-30T11:16:00.563Z,99615.03
2023-01-30T11:21:05.433Z,99597.44
2023-01-30T11:26:20.278Z,99602.94
2023-01-30T11:31:40.376Z,99587.06
2023-01-30T11:36:46.024Z,99599.03
2023-01-30T11:41:59.497Z,99608.88
2023-01-30T11:47:04.337Z,99593.28
2023-01-30T11:52:07.346Z,99596.81
2023-01-30T11:57:15.078Z,99568.22
2023-01-30T12:02:21.706Z,99552.31
2023-01-30T12:07:26.502Z,99550.47
2023-01-30T12:12:35.182Z,99545.53
2023-01-30T12:17:43.866Z,99559.09
2023-01-30T12:22:50.673Z,99555.91
2023-01-30T12:28:00.994Z,99531.78
2023-01-30T12:33:05.950Z,99531.53
2023-01-30T12:38:18.882Z,99498.19
2023-01-30T12:43:37.996Z,99499.88
2023-01-30T12:49:11.042Z,99508.34
2023-01-30T12:54:21.299Z,99545.06
2023-01-30T12:59:29.124Z,99509.38
2023-01-30T13:04:56.573Z,99503.69
2023-01-30T13:10:10.764Z,99487.88
2023-01-30T13:15:21.353Z,99501.13
2023-01-30T13:20:37.723Z,99501.69
2023-01-30T13:25:44.216Z,99509.19
2023-01-30T13:30:50.948Z,99509.13
2023-01-30T13:35:56.917Z,99509.00
2023-01-30T13:41:01.473Z,99498.31
2023-01-30T13:46:09.248Z,99529.16
2023-01-30T13:51:24.562Z,99519.53
2023-01-30T13:56:41.362Z,99517.88
2023-01-30T14:02:16.664Z,99520.06
2023-01-30T14:07:26.011Z,99514.97
2023-01-30T14:12:33.831Z,99510.03
2023-01-30T14:17:38.004Z,99512.75
2023-01-30T14:22:51.250Z,99498.38
2023-01-30T14:27:55.418Z,99519.91
2023-01-30T14:33:00.981Z,99532.00
2023-01-30T14:38:14.787Z,99528.66
2023-01-30T14:43:54.231Z,99540.84
2023-01-30T14:49:04.975Z,99571.50
2023-01-30T14:54:11.122Z,99556.72
2023-01-30T14:59:24.361Z,99593.06
2023-01-30T15:04:31.931Z,99590.06
2023-01-30T15:09:34.777Z,99591.69
2023-01-30T15:14:43.578Z,99617.66
2023-01-30T15:20:03.753Z,99591.69
2023-01-30T15:25:25.641Z,99607.38
2023-01-30T15:30:38.674Z,99597.28
2023-01-30T15:35:43.746Z,99600.38
2023-01-30T15:40:46.668Z,99620.22
2023-01-30T15:46:02.831Z,99633.44
2023-01-30T15:51:07.066Z,99626.22
2023-01-30T15:56:11.955Z,99626.91
2023-01-30T16:01:20.567Z,99638.84
2023-01-30T16:06:32.552Z,99658.16
2023-01-30T16:11:40.268Z,99669.97
2023-01-30T16:16:44.707Z,99655.53
2023-01-30T16:21:49.413Z,99665.63
2023-01-30T16:26:55.240Z,99651.84
2023-01-30T16:31:58.423Z,99673.91
2023-01-30T16:37:07.827Z,99692.81
2023-01-30T16:42:23.574Z,99714.03
2023-01-30T16:47:28.018Z,99706.13
2023-01-30T16:52:37.663Z,99716.94
2023-01-30T16:57:43.661Z,99737.88
2023-01-30T17:02:51.922Z,99763.22
2023-01-30T17:07:57.293Z,99735.09
2023-01-30T17:13:00.075Z,99744.69
2023-01-30T17:18:03.022Z,99762.19
2023-01-30T17:23:10.299Z,99775.44
2023-01-30T17:28:21.023Z,99775.72
2023-01-30T17:33:25.580Z,99767.09
2023-01-30T17:38:29.630Z,99792.53
2023-01-30T17:43:32.386Z,99808.63
2023-01-30T17:48:35.077Z,99837.03
2023-01-30T17:53:39.264Z,99844.69
2023-01-30T17:58:41.983Z,99860.06
2023-01-30T18:03:45.074Z,99853.34
2023-01-30T18:08:49.248Z,99850.41
2023-01-30T18:13:52.070Z,99882.97
2023-01-30T18:18:54.953Z,99895.47
2023-01-30T18:23:59.108Z,99911.59
2023-01-30T18:29:01.888Z,99904.38
2023-01-30T18:34:04.616Z,99930.13
2023-01-30T18:39:09.113Z,99922.09
2023-01-30T18:44:12.907Z,99936.75
2023-01-30T18:49:15.768Z,99938.03
2023-01-30T18:54:19.887Z,99964.03
2023-01-30T18:59:22.967Z,99976.00
2023-01-30T19:04:25.798Z,99974.06
2023-01-30T19:09:30.888Z,99980.94
2023-01-30T19:14:33.658Z,100006.72
2023-01-30T19:19:37.037Z,99995.63
2023-01-30T19:24:41.303Z,99997.88
2023-01-30T19:29:43.993Z,100015.72
2023-01-30T19:34:46.834Z,100024.47
2023-01-30T19:39:51.295Z,100026.00
2023-01-30T19:44:54.081Z,100035.00
2023-01-30T19:49:56.810Z,100057.94
2023-01-30T19:55:00.950Z,100062.28
2023-01-30T20:00:04.817Z,100066.75
2023-01-30T20:05:09.021Z,100074.91
2023-01-30T20:10:13.408Z,100086.03
2023-01-30T20:15:16.330Z,100088.50
2023-01-30T20:20:19.321Z,100068.53
2023-01-30T20:25:24.220Z,100093.25
2023-01-30T20:30:26.993Z,100101.44
2023-01-30T20:35:29.689Z,100103.09
2023-01-30T20:40:33.742Z,100097.28
2023-01-30T20:45:36.602Z,100105.69
2023-01-30T20:50:39.576Z,100113.47
2023-01-30T20:55:43.907Z,100115.72
2023-01-30T21:00:46.635Z,100118.78
2023-01-30T21:05:57.695Z,100129.75
2023-01-30T21:11:10.718Z,100147.56
2023-01-30T21:16:15.995Z,100158.31
2023-01-30T21:21:20.351Z,100179.81
2023-01-30T21:26:26.619Z,100174.00
2023-01-30T21:31:30.890Z,100177.81
2023-01-30T21:36:33.807Z,100204.31
2023-01-30T21:41:57.547Z,100202.53
2023-01-30T21:47:00.921Z,100230.00
2023-01-30T21:52:03.673Z,100227.03
2023-01-30T21:57:07.818Z,100243.34
2023-01-30T22:02:10.584Z,100260.75
2023-01-30T22:07:13.456Z,100264.53
2023-01-30T22:12:17.748Z,100249.63
2023-01-30T22:17:20.536Z,100248.56
2023-01-30T22:22:25.131Z,100253.50
2023-01-30T22:27:29.179Z,100238.47
2023-01-30T22:32:32.034Z,100256.94
2023-01-30T22:37:35.193Z,100261.16
2023-01-30T22:42:39.462Z,100265.69
2023-01-30T22:47:42.168Z,100293.19
2023-01-30T22:52:44.905Z,100277.44
2023-01-30T22:57:49.045Z,100266.88
2023-01-30T23:02:51.751Z,100276.94
2023-01-30T23:07:54.426Z,100285.97
2023-01-30T23:13:07.312Z,100284.69
2023-01-30T23:18:28.106Z,100288.09
2023-01-30T23:23:31.029Z,100289.53
2023-01-30T23:28:35.915Z,100294.84
2023-01-30T23:33:38.907Z,100302.88
2023-01-30T23:38:42.197Z,100301.31
2023-01-30T23:43:47.036Z,100313.84
2023-01-30T23:48:51.698Z,100325.56
2023-01-30T23:53:55.225Z,100324.91
2023-01-30T23:58:59.735Z,100336.91
